createdAt,value
2018-12-19T10:15:37.332Z,8.40
2018-12-19T10:20:52.370Z,9.10
2018-12-19T10:26:06.016Z,9.20
2018-12-19T10:37:04.729Z,9.40
2018-12-19T10:42:17.569Z,10.20
2018-12-19T10:47:33.648Z,10.40
2018-12-19T10:52:49.725Z,10.50
2018-12-19T10:58:03.643Z,10.70
2018-12-19T11:03:41.813Z,10.60
2018-12-19T11:09:13.055Z,10.30
2018-12-19T11:14:17.282Z,10.00
2018-12-19T11:25:04.928Z,9.90
2018-12-19T11:30:13.972Z,9.70
2018-12-19T11:35:43.477Z,9.60
2018-12-19T11:41:08.434Z,9.60
2018-12-19T11:57:22.119Z,9.60
2018-12-19T12:02:33.713Z,9.60
2018-12-19T12:07:56.888Z,9.70
2018-12-19T12:13:23.228Z,9.70
2018-12-19T12:18:37.163Z,9.70
2018-12-19T12:24:09.499Z,9.80
2018-12-19T12:29:35.095Z,9.90
2018-12-19T12:35:00.850Z,9.90
2018-12-19T12:40:26.160Z,9.90
2018-12-19T12:45:48.297Z,9.90
2018-12-19T12:51:16.274Z,10.00
2018-12-19T12:56:42.293Z,10.00
2018-12-19T13:01:57.398Z,10.00
2018-12-19T13:07:16.382Z,10.00
2018-12-19T13:12:43.862Z,10.00
2018-12-19T13:23:29.675Z,10.00
2018-12-19T13:29:06.511Z,9.90
2018-12-19T13:34:24.572Z,9.90
2018-12-19T13:45:13.785Z,10.00
2018-12-19T13:50:25.898Z,10.10
2018-12-19T13:55:59.397Z,10.10
2018-12-19T14:01:29.850Z,10.10
2018-12-19T14:06:49.856Z,10.10
2018-12-19T14:12:00.497Z,10.10
2018-12-19T14:23:01.265Z,10.10
2018-12-19T14:28:12.442Z,10.10
2018-12-19T14:33:28.350Z,10.10
2018-12-19T14:38:46.228Z,10.10
2018-12-19T14:44:22.131Z,10.10
2018-12-19T14:49:56.742Z,10.20
2018-12-19T14:55:12.631Z,10.10
2018-12-19T15:00:36.863Z,10.00
2018-12-19T15:06:07.997Z,10.00
2018-12-19T15:11:21.354Z,10.00
2018-12-19T15:22:13.261Z,9.90
2018-12-19T15:27:36.036Z,9.80
2018-12-19T15:32:58.913Z,9.90
2018-12-19T15:38:32.350Z,9.80
2018-12-19T15:43:46.219Z,9.80
2018-12-19T15:49:01.627Z,9.80
2018-12-19T15:59:40.090Z,10.00
2018-12-19T16:05:07.212Z,10.10
2018-12-19T16:10:13.942Z,10.00
2018-12-19T16:15:50.087Z,10.00
2018-12-19T16:21:54.851Z,9.80
2018-12-19T16:32:42.199Z,9.80
2018-12-19T16:43:10.869Z,9.60
2018-12-19T16:53:41.067Z,9.50
2018-12-19T16:58:51.604Z,9.60
2018-12-19T17:04:05.193Z,9.60
2018-12-19T17:09:26.699Z,9.60
2018-12-19T17:14:39.587Z,9.50
2018-12-19T17:19:54.482Z,9.50
2018-12-19T17:40:52.581Z,9.50
2018-12-19T17:51:23.537Z,9.30
2018-12-19T17:56:32.059Z,9.40
2018-12-19T18:06:52.682Z,9.40
2018-12-19T18:17:31.422Z,9.40
2018-12-19T18:22:41.360Z,9.40
2018-12-19T18:27:54.701Z,9.40
2018-12-19T18:38:24.729Z,9.30
2018-12-19T18:54:09.874Z,9.20
2018-12-19T18:59:28.569Z,9.10
2018-12-19T19:04:38.129Z,9.10
2018-12-19T19:30:54.796Z,9.10
2018-12-19T19:36:20.579Z,9.20
2018-12-19T19:52:10.392Z,9.10
2018-12-19T20:28:58.918Z,9.00
2018-12-19T21:11:36.362Z,8.60
2018-12-19T21:16:51.070Z,8.60
2018-12-19T21:53:34.249Z,8.70
2018-12-19T22:25:07.505Z,8.30
